sensor_id;sensor_type;location;lat;lon;timestamp;temperature;humidity
9885;DHT22;4981;50.966;4.842;2022-10-10T00:02:20;10.90;1.00
9885;DHT22;4981;50.966;4.842;2022-10-10T00:04:48;11.20;1.00
9885;DHT22;4981;50.966;4.842;2022-10-10T00:07:17;11.90;1.00
9885;DHT22;4981;50.966;4.842;2022-10-10T00:09:44;11.60;1.00
9885;DHT22;4981;50.966;4.842;2022-10-10T00:12:12;11.60;1.00
9885;DHT22;4981;50.966;4.842;2022-10-10T00:14:39;11.40;1.00
9885;DHT22;4981;50.966;4.842;2022-10-10T00:17:06;11.20;1.00
9885;DHT22;4981;50.966;4.842;2022-10-10T00:19:33;11.10;1.00
9885;DHT22;4981;50.966;4.842;2022-10-10T00:22:02;10.90;1.00
9885;DHT22;4981;50.966;4.842;2022-10-10T00:24:29;11.00;1.00
9885;DHT22;4981;50.966;4.842;2022-10-10T00:26:56;11.20;1.00
9885;DHT22;4981;50.966;4.842;2022-10-10T00:29:23;10.90;1.00
9885;DHT22;4981;50.966;4.842;2022-10-10T00:31:50;10.90;1.00
9885;DHT22;4981;50.966;4.842;2022-10-10T00:34:17;10.90;1.00
9885;DHT22;4981;50.966;4.842;2022-10-10T00:36:44;10.70;1.00
9885;DHT22;4981;50.966;4.842;2022-10-10T00:39:12;10.60;1.00
9885;DHT22;4981;50.966;4.842;2022-10-10T00:41:39;10.60;1.00
9885;DHT22;4981;50.966;4.842;2022-10-10T00:44:08;10.90;1.00
9885;DHT22;4981;50.966;4.842;2022-10-10T00:46:35;10.50;1.00
9885;DHT22;4981;50.966;4.842;2022-10-10T00:49:05;10.40;1.00
9885;DHT22;4981;50.966;4.842;2022-10-10T00:51:35;10.30;1.00
9885;DHT22;4981;50.966;4.842;2022-10-10T00:54:06;10.00;1.00
9885;DHT22;4981;50.966;4.842;2022-10-10T00:56:39;10.10;1.00
9885;DHT22;4981;50.966;4.842;2022-10-10T00:59:07;10.10;1.00
9885;DHT22;4981;50.966;4.842;2022-10-10T01:01:37;10.30;1.00
9885;DHT22;4981;50.966;4.842;2022-10-10T01:04:05;10.40;1.00
9885;DHT22;4981;50.966;4.842;2022-10-10T01:06:32;10.30;1.00
9885;DHT22;4981;50.966;4.842;2022-10-10T01:09:00;10.30;1.00
9885;DHT22;4981;50.966;4.842;2022-10-10T01:11:41;10.30;1.00
9885;DHT22;4981;50.966;4.842;2022-10-10T01:14:18;9.60;1.00
9885;DHT22;4981;50.966;4.842;2022-10-10T01:16:53;10.30;1.00
9885;DHT22;4981;50.966;4.842;2022-10-10T01:19:41;10.30;1.00
9885;DHT22;4981;50.966;4.842;2022-10-10T01:22:21;10.30;1.00
9885;DHT22;4981;50.966;4.842;2022-10-10T01:24:56;10.20;1.00
9885;DHT22;4981;50.966;4.842;2022-10-10T01:27:29;10.20;1.00
9885;DHT22;4981;50.966;4.842;2022-10-10T01:30:05;10.40;1.00
9885;DHT22;4981;50.966;4.842;2022-10-10T01:32:38;10.30;1.00
9885;DHT22;4981;50.966;4.842;2022-10-10T01:38:09;10.50;1.00
9885;DHT22;4981;50.966;4.842;2022-10-10T01:40:43;10.50;1.00
9885;DHT22;4981;50.966;4.842;2022-10-10T01:43:13;10.50;1.00
9885;DHT22;4981;50.966;4.842;2022-10-10T01:45:45;10.50;1.00
9885;DHT22;4981;50.966;4.842;2022-10-10T01:48:12;10.60;1.00
9885;DHT22;4981;50.966;4.842;2022-10-10T01:50:58;10.70;1.00
9885;DHT22;4981;50.966;4.842;2022-10-10T01:53:33;10.80;1.00
9885;DHT22;4981;50.966;4.842;2022-10-10T01:56:06;10.70;1.00
9885;DHT22;4981;50.966;4.842;2022-10-10T01:59:00;10.50;1.00
9885;DHT22;4981;50.966;4.842;2022-10-10T02:01:35;10.30;1.00
9885;DHT22;4981;50.966;4.842;2022-10-10T02:04:10;10.20;1.00
9885;DHT22;4981;50.966;4.842;2022-10-10T02:06:43;10.10;1.00
9885;DHT22;4981;50.966;4.842;2022-10-10T02:09:17;10.10;1.00
9885;DHT22;4981;50.966;4.842;2022-10-10T02:11:45;10.10;1.00
9885;DHT22;4981;50.966;4.842;2022-10-10T02:14:17;10.10;1.00
9885;DHT22;4981;50.966;4.842;2022-10-10T02:16:49;10.00;1.00
9885;DHT22;4981;50.966;4.842;2022-10-10T02:19:18;10.00;1.00
9885;DHT22;4981;50.966;4.842;2022-10-10T02:21:46;10.00;1.00
9885;DHT22;4981;50.966;4.842;2022-10-10T02:24:14;10.10;1.00
9885;DHT22;4981;50.966;4.842;2022-10-10T02:26:45;10.10;1.00
9885;DHT22;4981;50.966;4.842;2022-10-10T02:29:16;10.00;1.00
9885;DHT22;4981;50.966;4.842;2022-10-10T02:31:49;10.10;1.00
9885;DHT22;4981;50.966;4.842;2022-10-10T02:34:22;10.30;1.00
9885;DHT22;4981;50.966;4.842;2022-10-10T02:36:53;10.20;1.00
9885;DHT22;4981;50.966;4.842;2022-10-10T02:39:26;10.10;1.00
9885;DHT22;4981;50.966;4.842;2022-10-10T02:41:55;10.10;1.00
9885;DHT22;4981;50.966;4.842;2022-10-10T02:44:23;10.20;1.00
9885;DHT22;4981;50.966;4.842;2022-10-10T02:46:52;10.20;1.00
9885;DHT22;4981;50.966;4.842;2022-10-10T02:49:22;10.30;1.00
9885;DHT22;4981;50.966;4.842;2022-10-10T02:51:50;10.30;1.00
9885;DHT22;4981;50.966;4.842;2022-10-10T02:54:17;10.40;1.00
9885;DHT22;4981;50.966;4.842;2022-10-10T02:56:44;10.40;1.00
9885;DHT22;4981;50.966;4.842;2022-10-10T02:59:11;10.40;1.00
9885;DHT22;4981;50.966;4.842;2022-10-10T03:01:38;10.40;1.00
9885;DHT22;4981;50.966;4.842;2022-10-10T03:04:07;10.40;1.00
9885;DHT22;4981;50.966;4.842;2022-10-10T03:06:34;10.40;1.00
9885;DHT22;4981;50.966;4.842;2022-10-10T03:09:02;10.40;1.00
9885;DHT22;4981;50.966;4.842;2022-10-10T03:11:29;10.60;1.00
9885;DHT22;4981;50.966;4.842;2022-10-10T03:13:55;10.50;1.00
9885;DHT22;4981;50.966;4.842;2022-10-10T03:16:23;10.40;1.00
9885;DHT22;4981;50.966;4.842;2022-10-10T03:18:50;10.30;1.00
9885;DHT22;4981;50.966;4.842;2022-10-10T03:21:18;10.40;1.00
9885;DHT22;4981;50.966;4.842;2022-10-10T03:23:45;10.40;1.00
9885;DHT22;4981;50.966;4.842;2022-10-10T03:26:12;10.30;1.00
9885;DHT22;4981;50.966;4.842;2022-10-10T03:28:39;10.30;1.00
9885;DHT22;4981;50.966;4.842;2022-10-10T03:31:06;10.30;1.00
9885;DHT22;4981;50.966;4.842;2022-10-10T03:33:34;10.40;1.00
9885;DHT22;4981;50.966;4.842;2022-10-10T03:36:01;10.40;1.00
9885;DHT22;4981;50.966;4.842;2022-10-10T03:38:30;10.40;1.00
9885;DHT22;4981;50.966;4.842;2022-10-10T03:40:56;10.50;1.00
9885;DHT22;4981;50.966;4.842;2022-10-10T03:43:23;10.50;1.00
9885;DHT22;4981;50.966;4.842;2022-10-10T03:45:50;10.40;1.00
9885;DHT22;4981;50.966;4.842;2022-10-10T03:48:17;10.30;1.00
9885;DHT22;4981;50.966;4.842;2022-10-10T03:50:44;10.50;1.00
9885;DHT22;4981;50.966;4.842;2022-10-10T03:53:11;10.50;1.00
9885;DHT22;4981;50.966;4.842;2022-10-10T03:55:41;10.30;1.00
9885;DHT22;4981;50.966;4.842;2022-10-10T03:58:08;10.40;1.00
9885;DHT22;4981;50.966;4.842;2022-10-10T04:00:35;10.30;1.00
9885;DHT22;4981;50.966;4.842;2022-10-10T04:03:02;10.30;1.00
9885;DHT22;4981;50.966;4.842;2022-10-10T04:05:32;10.40;1.00
9885;DHT22;4981;50.966;4.842;2022-10-10T04:08:00;10.30;1.00
9885;DHT22;4981;50.966;4.842;2022-10-10T04:10:27;10.30;1.00
9885;DHT22;4981;50.966;4.842;2022-10-10T04:12:55;10.30;1.00
9885;DHT22;4981;50.966;4.842;2022-10-10T04:15:23;10.30;1.00
9885;DHT22;4981;50.966;4.842;2022-10-10T04:17:50;10.20;1.00
9885;DHT22;4981;50.966;4.842;2022-10-10T04:20:18;10.20;1.00
9885;DHT22;4981;50.966;4.842;2022-10-10T04:22:45;10.20;1.00
9885;DHT22;4981;50.966;4.842;2022-10-10T04:25:11;10.10;1.00
9885;DHT22;4981;50.966;4.842;2022-10-10T04:27:38;10.00;1.00
9885;DHT22;4981;50.966;4.842;2022-10-10T04:30:08;10.10;1.00
9885;DHT22;4981;50.966;4.842;2022-10-10T04:32:35;10.10;1.00
9885;DHT22;4981;50.966;4.842;2022-10-10T04:35:02;10.10;1.00
9885;DHT22;4981;50.966;4.842;2022-10-10T04:37:30;10.10;1.00
9885;DHT22;4981;50.966;4.842;2022-10-10T04:39:57;10.00;1.00
9885;DHT22;4981;50.966;4.842;2022-10-10T04:42:24;10.00;1.00
9885;DHT22;4981;50.966;4.842;2022-10-10T04:44:51;10.00;1.00
9885;DHT22;4981;50.966;4.842;2022-10-10T04:47:20;10.00;1.00
9885;DHT22;4981;50.966;4.842;2022-10-10T04:49:47;10.00;1.00
9885;DHT22;4981;50.966;4.842;2022-10-10T04:52:15;10.00;1.00
9885;DHT22;4981;50.966;4.842;2022-10-10T04:54:42;10.00;1.00
9885;DHT22;4981;50.966;4.842;2022-10-10T04:57:08;10.00;1.00
9885;DHT22;4981;50.966;4.842;2022-10-10T04:59:36;10.00;1.00
9885;DHT22;4981;50.966;4.842;2022-10-10T05:02:03;9.90;1.00
9885;DHT22;4981;50.966;4.842;2022-10-10T05:04:31;10.00;1.00
9885;DHT22;4981;50.966;4.842;2022-10-10T05:06:58;10.00;1.00
9885;DHT22;4981;50.966;4.842;2022-10-10T05:09:25;10.00;1.00
9885;DHT22;4981;50.966;4.842;2022-10-10T05:11:52;9.80;1.00
9885;DHT22;4981;50.966;4.842;2022-10-10T05:14:19;9.80;1.00
9885;DHT22;4981;50.966;4.842;2022-10-10T05:16:46;9.90;1.00
9885;DHT22;4981;50.966;4.842;2022-10-10T05:19:13;9.90;1.00
9885;DHT22;4981;50.966;4.842;2022-10-10T05:21:41;10.00;1.00
9885;DHT22;4981;50.966;4.842;2022-10-10T05:24:08;9.80;1.00
9885;DHT22;4981;50.966;4.842;2022-10-10T05:26:36;9.90;1.00
9885;DHT22;4981;50.966;4.842;2022-10-10T05:29:03;9.90;1.00
9885;DHT22;4981;50.966;4.842;2022-10-10T05:31:30;9.90;1.00
9885;DHT22;4981;50.966;4.842;2022-10-10T05:33:59;9.70;1.00
9885;DHT22;4981;50.966;4.842;2022-10-10T05:36:26;9.60;1.00
9885;DHT22;4981;50.966;4.842;2022-10-10T05:38:54;9.50;1.00
9885;DHT22;4981;50.966;4.842;2022-10-10T05:41:22;9.50;1.00
9885;DHT22;4981;50.966;4.842;2022-10-10T05:43:49;9.60;1.00
9885;DHT22;4981;50.966;4.842;2022-10-10T05:46:16;9.70;1.00
9885;DHT22;4981;50.966;4.842;2022-10-10T05:48:44;9.70;1.00
9885;DHT22;4981;50.966;4.842;2022-10-10T05:51:11;9.70;1.00
9885;DHT22;4981;50.966;4.842;2022-10-10T05:53:39;10.90;1.00
9885;DHT22;4981;50.966;4.842;2022-10-10T05:56:07;10.00;1.00
9885;DHT22;4981;50.966;4.842;2022-10-10T05:58:34;9.70;1.00
9885;DHT22;4981;50.966;4.842;2022-10-10T06:01:02;9.50;1.00
9885;DHT22;4981;50.966;4.842;2022-10-10T06:03:30;9.50;1.00
9885;DHT22;4981;50.966;4.842;2022-10-10T06:05:57;9.50;1.00
9885;DHT22;4981;50.966;4.842;2022-10-10T06:08:24;9.40;1.00
9885;DHT22;4981;50.966;4.842;2022-10-10T06:10:52;9.40;1.00
9885;DHT22;4981;50.966;4.842;2022-10-10T06:13:20;9.40;1.00
9885;DHT22;4981;50.966;4.842;2022-10-10T06:15:50;9.40;1.00
9885;DHT22;4981;50.966;4.842;2022-10-10T06:18:18;9.40;1.00
9885;DHT22;4981;50.966;4.842;2022-10-10T06:20:45;9.50;1.00
9885;DHT22;4981;50.966;4.842;2022-10-10T06:23:12;9.60;1.00
9885;DHT22;4981;50.966;4.842;2022-10-10T06:25:39;9.70;1.00
9885;DHT22;4981;50.966;4.842;2022-10-10T06:28:07;9.60;1.00
9885;DHT22;4981;50.966;4.842;2022-10-10T06:30:38;9.70;1.00
9885;DHT22;4981;50.966;4.842;2022-10-10T06:33:05;9.80;1.00
9885;DHT22;4981;50.966;4.842;2022-10-10T06:35:33;9.80;1.00
9885;DHT22;4981;50.966;4.842;2022-10-10T06:38:03;9.80;1.00
9885;DHT22;4981;50.966;4.842;2022-10-10T06:40:31;9.90;1.00
9885;DHT22;4981;50.966;4.842;2022-10-10T06:42:59;9.90;1.00
9885;DHT22;4981;50.966;4.842;2022-10-10T06:45:26;9.90;1.00
9885;DHT22;4981;50.966;4.842;2022-10-10T06:47:54;9.90;1.00
9885;DHT22;4981;50.966;4.842;2022-10-10T06:50:21;10.00;1.00
9885;DHT22;4981;50.966;4.842;2022-10-10T06:52:48;10.00;1.00
9885;DHT22;4981;50.966;4.842;2022-10-10T06:55:15;9.90;1.00
9885;DHT22;4981;50.966;4.842;2022-10-10T06:57:42;10.00;1.00
9885;DHT22;4981;50.966;4.842;2022-10-10T07:00:12;10.00;1.00
9885;DHT22;4981;50.966;4.842;2022-10-10T07:02:39;10.10;1.00
9885;DHT22;4981;50.966;4.842;2022-10-10T07:05:10;10.10;1.00
9885;DHT22;4981;50.966;4.842;2022-10-10T07:07:37;10.30;1.00
9885;DHT22;4981;50.966;4.842;2022-10-10T07:10:05;10.30;1.00
9885;DHT22;4981;50.966;4.842;2022-10-10T07:12:32;10.40;1.00
9885;DHT22;4981;50.966;4.842;2022-10-10T07:14:59;10.50;1.00
9885;DHT22;4981;50.966;4.842;2022-10-10T07:17:26;10.70;1.00
9885;DHT22;4981;50.966;4.842;2022-10-10T07:19:53;10.80;1.00
9885;DHT22;4981;50.966;4.842;2022-10-10T07:22:21;11.00;1.00
9885;DHT22;4981;50.966;4.842;2022-10-10T07:24:48;11.20;1.00
9885;DHT22;4981;50.966;4.842;2022-10-10T07:27:16;11.40;1.00
9885;DHT22;4981;50.966;4.842;2022-10-10T07:29:43;11.40;1.00
9885;DHT22;4981;50.966;4.842;2022-10-10T07:32:10;11.50;1.00
9885;DHT22;4981;50.966;4.842;2022-10-10T07:34:37;11.50;1.00
9885;DHT22;4981;50.966;4.842;2022-10-10T07:37:04;11.70;1.00
9885;DHT22;4981;50.966;4.842;2022-10-10T07:39:32;11.80;1.00
9885;DHT22;4981;50.966;4.842;2022-10-10T07:41:59;11.90;1.00
9885;DHT22;4981;50.966;4.842;2022-10-10T07:44:27;11.90;1.00
9885;DHT22;4981;50.966;4.842;2022-10-10T07:46:54;11.90;1.00
9885;DHT22;4981;50.966;4.842;2022-10-10T07:49:20;11.90;1.00
9885;DHT22;4981;50.966;4.842;2022-10-10T07:51:47;11.80;1.00
9885;DHT22;4981;50.966;4.842;2022-10-10T07:54:14;11.90;1.00
9885;DHT22;4981;50.966;4.842;2022-10-10T07:56:43;11.90;1.00
9885;DHT22;4981;50.966;4.842;2022-10-10T07:59:11;12.00;1.00
9885;DHT22;4981;50.966;4.842;2022-10-10T08:01:38;12.00;1.00
9885;DHT22;4981;50.966;4.842;2022-10-10T08:04:05;12.20;1.00
9885;DHT22;4981;50.966;4.842;2022-10-10T08:06:32;12.30;1.00
9885;DHT22;4981;50.966;4.842;2022-10-10T08:08:59;12.40;1.00
9885;DHT22;4981;50.966;4.842;2022-10-10T08:11:26;12.50;1.00
9885;DHT22;4981;50.966;4.842;2022-10-10T08:13:54;12.60;1.00
9885;DHT22;4981;50.966;4.842;2022-10-10T08:16:21;12.60;1.00
9885;DHT22;4981;50.966;4.842;2022-10-10T08:18:48;12.60;1.00
9885;DHT22;4981;50.966;4.842;2022-10-10T08:21:16;12.70;1.00
9885;DHT22;4981;50.966;4.842;2022-10-10T08:23:43;12.70;1.00
9885;DHT22;4981;50.966;4.842;2022-10-10T08:26:13;12.70;1.00
9885;DHT22;4981;50.966;4.842;2022-10-10T08:28:40;12.80;1.00
9885;DHT22;4981;50.966;4.842;2022-10-10T08:31:10;12.90;1.00
9885;DHT22;4981;50.966;4.842;2022-10-10T08:33:38;13.00;1.00
9885;DHT22;4981;50.966;4.842;2022-10-10T08:36:06;13.20;1.00
9885;DHT22;4981;50.966;4.842;2022-10-10T08:38:34;13.30;1.00
9885;DHT22;4981;50.966;4.842;2022-10-10T08:41:06;13.40;1.00
9885;DHT22;4981;50.966;4.842;2022-10-10T08:43:39;13.50;1.00
9885;DHT22;4981;50.966;4.842;2022-10-10T08:46:14;13.50;1.00
9885;DHT22;4981;50.966;4.842;2022-10-10T08:48:45;13.60;1.00
9885;DHT22;4981;50.966;4.842;2022-10-10T08:51:19;13.60;1.00
9885;DHT22;4981;50.966;4.842;2022-10-10T08:53:53;13.70;1.00
9885;DHT22;4981;50.966;4.842;2022-10-10T08:56:25;13.70;1.00
9885;DHT22;4981;50.966;4.842;2022-10-10T08:58:56;13.90;1.00
9885;DHT22;4981;50.966;4.842;2022-10-10T09:01:30;13.90;1.00
9885;DHT22;4981;50.966;4.842;2022-10-10T09:03:59;14.10;1.00
9885;DHT22;4981;50.966;4.842;2022-10-10T09:06:50;14.20;1.00
9885;DHT22;4981;50.966;4.842;2022-10-10T09:09:25;14.40;1.00
9885;DHT22;4981;50.966;4.842;2022-10-10T09:12:03;14.60;1.00
9885;DHT22;4981;50.966;4.842;2022-10-10T09:14:34;14.80;1.00
9885;DHT22;4981;50.966;4.842;2022-10-10T09:17:14;14.90;1.00
9885;DHT22;4981;50.966;4.842;2022-10-10T09:19:53;15.00;1.00
9885;DHT22;4981;50.966;4.842;2022-10-10T09:22:24;15.10;1.00
9885;DHT22;4981;50.966;4.842;2022-10-10T09:24:57;15.30;1.00
9885;DHT22;4981;50.966;4.842;2022-10-10T09:27:32;15.40;1.00
9885;DHT22;4981;50.966;4.842;2022-10-10T09:30:03;15.60;1.00
9885;DHT22;4981;50.966;4.842;2022-10-10T09:32:35;15.40;1.00
9885;DHT22;4981;50.966;4.842;2022-10-10T09:35:13;15.40;1.00
9885;DHT22;4981;50.966;4.842;2022-10-10T09:37:43;15.40;1.00
9885;DHT22;4981;50.966;4.842;2022-10-10T09:40:18;15.50;1.00
9885;DHT22;4981;50.966;4.842;2022-10-10T09:42:48;15.50;1.00
9885;DHT22;4981;50.966;4.842;2022-10-10T09:45:17;15.50;1.00
9885;DHT22;4981;50.966;4.842;2022-10-10T09:47:50;15.20;1.00
9885;DHT22;4981;50.966;4.842;2022-10-10T09:50:17;15.50;1.00
9885;DHT22;4981;50.966;4.842;2022-10-10T09:52:46;15.40;1.00
9885;DHT22;4981;50.966;4.842;2022-10-10T09:55:22;15.50;1.00
9885;DHT22;4981;50.966;4.842;2022-10-10T09:57:51;15.30;1.00
9885;DHT22;4981;50.966;4.842;2022-10-10T10:00:27;15.20;1.00
9885;DHT22;4981;50.966;4.842;2022-10-10T10:03:10;15.20;1.00
9885;DHT22;4981;50.966;4.842;2022-10-10T10:05:39;15.30;1.00
9885;DHT22;4981;50.966;4.842;2022-10-10T10:08:18;15.20;1.00
9885;DHT22;4981;50.966;4.842;2022-10-10T10:10:45;15.40;1.00
9885;DHT22;4981;50.966;4.842;2022-10-10T10:13:16;15.50;1.00
9885;DHT22;4981;50.966;4.842;2022-10-10T10:15:48;15.70;1.00
9885;DHT22;4981;50.966;4.842;2022-10-10T10:18:23;15.80;1.00
9885;DHT22;4981;50.966;4.842;2022-10-10T10:20:54;15.90;1.00
9885;DHT22;4981;50.966;4.842;2022-10-10T10:23:39;16.00;1.00
9885;DHT22;4981;50.966;4.842;2022-10-10T10:26:17;16.10;1.00
9885;DHT22;4981;50.966;4.842;2022-10-10T10:28:45;16.20;1.00
9885;DHT22;4981;50.966;4.842;2022-10-10T10:31:22;16.40;1.00
9885;DHT22;4981;50.966;4.842;2022-10-10T10:34:00;16.60;1.00
9885;DHT22;4981;50.966;4.842;2022-10-10T10:36:40;16.80;1.00
9885;DHT22;4981;50.966;4.842;2022-10-10T10:39:22;16.90;1.00
9885;DHT22;4981;50.966;4.842;2022-10-10T10:41:57;16.80;1.00
9885;DHT22;4981;50.966;4.842;2022-10-10T10:44:35;16.90;1.00
9885;DHT22;4981;50.966;4.842;2022-10-10T10:50:04;17.20;1.00
9885;DHT22;4981;50.966;4.842;2022-10-10T10:52:46;17.40;1.00
9885;DHT22;4981;50.966;4.842;2022-10-10T10:55:26;17.40;1.00
9885;DHT22;4981;50.966;4.842;2022-10-10T11:00:59;17.60;1.00
9885;DHT22;4981;50.966;4.842;2022-10-10T11:03:41;17.70;1.00
9885;DHT22;4981;50.966;4.842;2022-10-10T11:06:23;17.70;1.00
9885;DHT22;4981;50.966;4.842;2022-10-10T11:09:03;17.80;1.00
9885;DHT22;4981;50.966;4.842;2022-10-10T11:11:41;17.90;1.00
9885;DHT22;4981;50.966;4.842;2022-10-10T11:14:21;18.00;1.00
9885;DHT22;4981;50.966;4.842;2022-10-10T11:16:53;18.10;1.00
9885;DHT22;4981;50.966;4.842;2022-10-10T11:19:26;18.10;1.00
9885;DHT22;4981;50.966;4.842;2022-10-10T11:22:01;18.10;1.00
9885;DHT22;4981;50.966;4.842;2022-10-10T11:24:35;17.90;1.00
9885;DHT22;4981;50.966;4.842;2022-10-10T11:27:08;17.70;1.00
9885;DHT22;4981;50.966;4.842;2022-10-10T11:29:48;17.80;1.00
9885;DHT22;4981;50.966;4.842;2022-10-10T11:32:19;18.20;1.00
9885;DHT22;4981;50.966;4.842;2022-10-10T11:35:06;18.60;1.00
9885;DHT22;4981;50.966;4.842;2022-10-10T11:37:41;19.60;1.00
9885;DHT22;4981;50.966;4.842;2022-10-10T11:40:23;19.80;1.00
9885;DHT22;4981;50.966;4.842;2022-10-10T11:42:57;19.40;1.00
9885;DHT22;4981;50.966;4.842;2022-10-10T11:45:27;19.10;1.00
9885;DHT22;4981;50.966;4.842;2022-10-10T11:48:00;19.00;1.00
9885;DHT22;4981;50.966;4.842;2022-10-10T11:50:33;18.80;1.00
9885;DHT22;4981;50.966;4.842;2022-10-10T11:53:10;18.80;1.00
9885;DHT22;4981;50.966;4.842;2022-10-10T11:55:44;19.00;1.00
9885;DHT22;4981;50.966;4.842;2022-10-10T11:58:31;19.00;1.00
9885;DHT22;4981;50.966;4.842;2022-10-10T12:01:04;18.90;1.00
9885;DHT22;4981;50.966;4.842;2022-10-10T12:03:32;18.90;1.00
9885;DHT22;4981;50.966;4.842;2022-10-10T12:06:03;18.80;1.00
9885;DHT22;4981;50.966;4.842;2022-10-10T12:08:37;18.60;1.00
9885;DHT22;4981;50.966;4.842;2022-10-10T12:11:11;18.50;1.00
9885;DHT22;4981;50.966;4.842;2022-10-10T12:13:44;18.50;1.00
9885;DHT22;4981;50.966;4.842;2022-10-10T12:16:14;18.50;1.00
9885;DHT22;4981;50.966;4.842;2022-10-10T12:18:45;18.50;1.00
9885;DHT22;4981;50.966;4.842;2022-10-10T12:21:17;18.30;1.00
9885;DHT22;4981;50.966;4.842;2022-10-10T12:23:48;18.20;1.00
9885;DHT22;4981;50.966;4.842;2022-10-10T12:26:19;18.20;1.00
9885;DHT22;4981;50.966;4.842;2022-10-10T12:29:01;18.10;1.00
9885;DHT22;4981;50.966;4.842;2022-10-10T12:31:33;18.00;1.00
9885;DHT22;4981;50.966;4.842;2022-10-10T12:34:04;18.00;1.00
9885;DHT22;4981;50.966;4.842;2022-10-10T12:39:38;18.00;1.00
9885;DHT22;4981;50.966;4.842;2022-10-10T12:42:30;18.20;1.00
9885;DHT22;4981;50.966;4.842;2022-10-10T12:44:57;18.20;1.00
9885;DHT22;4981;50.966;4.842;2022-10-10T12:47:39;18.20;1.00
9885;DHT22;4981;50.966;4.842;2022-10-10T12:50:19;18.10;1.00
9885;DHT22;4981;50.966;4.842;2022-10-10T12:52:49;18.20;1.00
9885;DHT22;4981;50.966;4.842;2022-10-10T12:55:21;18.10;1.00
9885;DHT22;4981;50.966;4.842;2022-10-10T12:57:51;18.00;1.00
9885;DHT22;4981;50.966;4.842;2022-10-10T13:00:21;17.90;1.00
9885;DHT22;4981;50.966;4.842;2022-10-10T13:02:52;17.80;1.00
9885;DHT22;4981;50.966;4.842;2022-10-10T13:05:25;17.70;1.00
9885;DHT22;4981;50.966;4.842;2022-10-10T13:07:55;17.70;1.00
9885;DHT22;4981;50.966;4.842;2022-10-10T13:10:27;17.60;1.00
9885;DHT22;4981;50.966;4.842;2022-10-10T13:13:00;17.70;1.00
9885;DHT22;4981;50.966;4.842;2022-10-10T13:15:28;17.80;1.00
9885;DHT22;4981;50.966;4.842;2022-10-10T13:17:55;17.90;1.00
9885;DHT22;4981;50.966;4.842;2022-10-10T13:20:29;18.30;1.00
9885;DHT22;4981;50.966;4.842;2022-10-10T13:22:57;18.00;1.00
9885;DHT22;4981;50.966;4.842;2022-10-10T13:25:29;17.90;1.00
9885;DHT22;4981;50.966;4.842;2022-10-10T13:27:56;18.20;1.00
9885;DHT22;4981;50.966;4.842;2022-10-10T13:30:24;18.30;1.00
9885;DHT22;4981;50.966;4.842;2022-10-10T13:32:52;18.70;1.00
9885;DHT22;4981;50.966;4.842;2022-10-10T13:35:22;18.90;1.00
9885;DHT22;4981;50.966;4.842;2022-10-10T13:37:54;18.90;1.00
9885;DHT22;4981;50.966;4.842;2022-10-10T13:40:23;18.70;1.00
9885;DHT22;4981;50.966;4.842;2022-10-10T13:42:53;18.60;1.00
9885;DHT22;4981;50.966;4.842;2022-10-10T13:45:34;18.50;1.00
9885;DHT22;4981;50.966;4.842;2022-10-10T13:48:18;18.40;1.00
9885;DHT22;4981;50.966;4.842;2022-10-10T13:50:54;18.40;1.00
9885;DHT22;4981;50.966;4.842;2022-10-10T13:53:23;18.40;1.00
9885;DHT22;4981;50.966;4.842;2022-10-10T13:55:57;18.30;1.00
9885;DHT22;4981;50.966;4.842;2022-10-10T13:58:28;18.20;1.00
9885;DHT22;4981;50.966;4.842;2022-10-10T14:00:58;18.20;1.00
9885;DHT22;4981;50.966;4.842;2022-10-10T14:03:25;18.10;1.00
9885;DHT22;4981;50.966;4.842;2022-10-10T14:05:53;18.20;1.00
9885;DHT22;4981;50.966;4.842;2022-10-10T14:08:26;18.10;1.00
9885;DHT22;4981;50.966;4.842;2022-10-10T14:11:00;18.10;1.00
9885;DHT22;4981;50.966;4.842;2022-10-10T14:13:30;18.00;1.00
9885;DHT22;4981;50.966;4.842;2022-10-10T14:16:10;18.00;1.00
9885;DHT22;4981;50.966;4.842;2022-10-10T14:18:38;18.00;1.00
9885;DHT22;4981;50.966;4.842;2022-10-10T14:21:06;18.00;1.00
9885;DHT22;4981;50.966;4.842;2022-10-10T14:23:35;18.00;1.00
9885;DHT22;4981;50.966;4.842;2022-10-10T14:26:03;18.30;1.00
9885;DHT22;4981;50.966;4.842;2022-10-10T14:28:33;18.30;1.00
9885;DHT22;4981;50.966;4.842;2022-10-10T14:31:00;18.20;1.00
9885;DHT22;4981;50.966;4.842;2022-10-10T14:33:28;18.10;1.00
9885;DHT22;4981;50.966;4.842;2022-10-10T14:35:57;18.00;1.00
9885;DHT22;4981;50.966;4.842;2022-10-10T14:38:25;18.20;1.00
9885;DHT22;4981;50.966;4.842;2022-10-10T14:40:53;17.80;1.00
9885;DHT22;4981;50.966;4.842;2022-10-10T14:43:20;17.50;1.00
9885;DHT22;4981;50.966;4.842;2022-10-10T14:45:51;17.10;1.00
9885;DHT22;4981;50.966;4.842;2022-10-10T14:48:19;17.30;1.00
9885;DHT22;4981;50.966;4.842;2022-10-10T14:50:47;17.20;1.00
9885;DHT22;4981;50.966;4.842;2022-10-10T14:53:16;17.10;1.00
9885;DHT22;4981;50.966;4.842;2022-10-10T14:55:43;17.10;1.00
9885;DHT22;4981;50.966;4.842;2022-10-10T14:58:13;16.90;1.00
9885;DHT22;4981;50.966;4.842;2022-10-10T15:00:42;16.90;1.00
9885;DHT22;4981;50.966;4.842;2022-10-10T15:03:10;16.50;1.00
9885;DHT22;4981;50.966;4.842;2022-10-10T15:05:38;16.90;1.00
9885;DHT22;4981;50.966;4.842;2022-10-10T15:08:05;16.90;1.00
9885;DHT22;4981;50.966;4.842;2022-10-10T15:10:32;16.80;1.00
9885;DHT22;4981;50.966;4.842;2022-10-10T15:12:59;16.60;1.00
9885;DHT22;4981;50.966;4.842;2022-10-10T15:15:26;16.70;1.00
9885;DHT22;4981;50.966;4.842;2022-10-10T15:17:53;16.50;1.00
9885;DHT22;4981;50.966;4.842;2022-10-10T15:20:23;16.30;1.00
9885;DHT22;4981;50.966;4.842;2022-10-10T15:22:55;16.30;1.00
9885;DHT22;4981;50.966;4.842;2022-10-10T15:25:23;16.50;1.00
9885;DHT22;4981;50.966;4.842;2022-10-10T15:27:49;16.00;1.00
9885;DHT22;4981;50.966;4.842;2022-10-10T15:30:18;16.10;1.00
9885;DHT22;4981;50.966;4.842;2022-10-10T15:32:45;16.10;1.00
9885;DHT22;4981;50.966;4.842;2022-10-10T15:35:14;16.10;1.00
9885;DHT22;4981;50.966;4.842;2022-10-10T15:37:45;16.00;1.00
9885;DHT22;4981;50.966;4.842;2022-10-10T15:40:14;16.00;1.00
9885;DHT22;4981;50.966;4.842;2022-10-10T15:42:42;15.80;1.00
9885;DHT22;4981;50.966;4.842;2022-10-10T15:45:09;15.70;1.00
9885;DHT22;4981;50.966;4.842;2022-10-10T15:47:37;15.60;1.00
9885;DHT22;4981;50.966;4.842;2022-10-10T15:50:07;15.40;1.00
9885;DHT22;4981;50.966;4.842;2022-10-10T15:52:35;15.40;1.00
9885;DHT22;4981;50.966;4.842;2022-10-10T15:55:05;15.20;1.00
9885;DHT22;4981;50.966;4.842;2022-10-10T15:57:32;15.10;1.00
9885;DHT22;4981;50.966;4.842;2022-10-10T15:59:59;15.20;1.00
9885;DHT22;4981;50.966;4.842;2022-10-10T16:02:26;15.30;1.00
9885;DHT22;4981;50.966;4.842;2022-10-10T16:04:53;15.20;1.00
9885;DHT22;4981;50.966;4.842;2022-10-10T16:07:20;15.30;1.00
9885;DHT22;4981;50.966;4.842;2022-10-10T16:09:47;15.20;1.00
9885;DHT22;4981;50.966;4.842;2022-10-10T16:12:15;15.00;1.00
9885;DHT22;4981;50.966;4.842;2022-10-10T16:14:43;14.70;1.00
9885;DHT22;4981;50.966;4.842;2022-10-10T16:17:10;14.70;1.00
9885;DHT22;4981;50.966;4.842;2022-10-10T16:19:37;14.40;1.00
9885;DHT22;4981;50.966;4.842;2022-10-10T16:22:04;14.70;1.00
9885;DHT22;4981;50.966;4.842;2022-10-10T16:24:32;15.00;1.00
9885;DHT22;4981;50.966;4.842;2022-10-10T16:26:59;15.00;1.00
9885;DHT22;4981;50.966;4.842;2022-10-10T16:29:29;14.70;1.00
9885;DHT22;4981;50.966;4.842;2022-10-10T16:31:56;14.50;1.00
9885;DHT22;4981;50.966;4.842;2022-10-10T16:34:22;14.30;1.00
9885;DHT22;4981;50.966;4.842;2022-10-10T16:36:50;14.30;1.00
9885;DHT22;4981;50.966;4.842;2022-10-10T16:39:17;14.30;1.00
9885;DHT22;4981;50.966;4.842;2022-10-10T16:41:44;14.20;1.00
9885;DHT22;4981;50.966;4.842;2022-10-10T16:44:10;14.00;1.00
9885;DHT22;4981;50.966;4.842;2022-10-10T16:46:39;14.20;1.00
9885;DHT22;4981;50.966;4.842;2022-10-10T16:49:06;14.10;1.00
9885;DHT22;4981;50.966;4.842;2022-10-10T16:51:33;14.10;1.00